createdAt,value
2018-04-15T00:01:47.227Z,8.60
2018-04-15T00:04:13.650Z,9.10
2018-04-15T00:06:40.191Z,8.60
2018-04-15T00:09:06.758Z,9.32
2018-04-15T00:11:33.413Z,8.90
2018-04-15T00:13:59.857Z,9.60
2018-04-15T00:16:27.255Z,8.90
2018-04-15T00:18:53.688Z,9.27
2018-04-15T00:21:21.944Z,9.20
2018-04-15T00:23:48.369Z,8.20
2018-04-15T00:26:14.812Z,7.95
2018-04-15T00:28:41.292Z,7.43
2018-04-15T00:31:07.704Z,7.15
2018-04-15T00:33:34.903Z,7.22
2018-04-15T00:36:01.301Z,6.20
2018-04-15T00:38:28.012Z,6.57
2018-04-15T00:40:54.993Z,6.80
2018-04-15T00:43:21.361Z,6.37
2018-04-15T00:45:47.792Z,6.20
2018-04-15T00:48:14.342Z,7.93
2018-04-15T00:50:41.474Z,7.40
2018-04-15T00:53:07.887Z,8.13
2018-04-15T00:55:34.317Z,7.97
2018-04-15T00:58:01.598Z,7.13
2018-04-15T01:00:28.780Z,6.90
2018-04-15T01:02:55.191Z,6.47
2018-04-15T01:05:22.609Z,6.15
2018-04-15T01:07:49.813Z,6.20
2018-04-15T01:10:17.158Z,6.37
2018-04-15T01:12:44.307Z,6.57
2018-04-15T01:15:10.728Z,6.50
2018-04-15T01:17:39.208Z,5.80
2018-04-15T01:20:05.675Z,6.40
2018-04-15T01:22:32.084Z,6.18
2018-04-15T01:24:59.332Z,6.50
2018-04-15T01:27:26.278Z,6.63
2018-04-15T01:29:52.670Z,6.70
2018-04-15T01:32:19.890Z,6.22
2018-04-15T01:34:47.445Z,6.15
2018-04-15T01:37:14.641Z,6.90
2018-04-15T01:39:41.057Z,6.40
2018-04-15T01:42:08.354Z,6.18
2018-04-15T01:44:34.772Z,6.10
2018-04-15T01:47:01.159Z,6.37
2018-04-15T01:49:28.332Z,6.43
2018-04-15T01:51:54.882Z,7.18
2018-04-15T01:54:22.001Z,6.45
2018-04-15T01:56:48.404Z,6.78
2018-04-15T01:59:15.594Z,7.10
2018-04-15T02:01:42.183Z,6.90
2018-04-15T02:04:08.648Z,7.50
2018-04-15T02:06:35.072Z,7.22
2018-04-15T02:09:01.444Z,7.20
2018-04-15T02:11:27.935Z,7.40
2018-04-15T02:13:56.026Z,7.53
2018-04-15T02:16:22.482Z,7.40
2018-04-15T02:18:49.076Z,6.90
2018-04-15T02:21:16.229Z,7.10
2018-04-15T02:23:42.652Z,6.95
2018-04-15T02:26:09.074Z,6.80
2018-04-15T02:28:35.562Z,7.03
2018-04-15T02:31:02.024Z,7.40
2018-04-15T02:33:28.498Z,6.97
2018-04-15T02:35:55.194Z,7.47
2018-04-15T02:38:22.465Z,7.28
2018-04-15T02:40:49.614Z,7.25
2018-04-15T02:43:16.050Z,6.68
2018-04-15T02:45:42.452Z,7.67
2018-04-15T02:48:10.681Z,7.20
2018-04-15T02:50:37.094Z,6.90
2018-04-15T02:53:04.257Z,6.90
2018-04-15T02:55:31.414Z,7.20
2018-04-15T02:57:58.721Z,7.15
2018-04-15T03:00:25.136Z,7.10
2018-04-15T03:02:52.183Z,7.10
2018-04-15T03:05:18.682Z,7.13
2018-04-15T03:07:45.855Z,7.37
2018-04-15T03:10:12.265Z,7.53
2018-04-15T03:12:42.599Z,7.30
2018-04-15T03:15:09.080Z,7.10
2018-04-15T03:17:35.500Z,7.05
2018-04-15T03:20:02.041Z,6.40
2018-04-15T03:22:28.606Z,6.80
2018-04-15T03:24:55.030Z,7.15
2018-04-15T03:27:21.435Z,6.32
2018-04-15T03:29:47.905Z,6.15
2018-04-15T03:32:14.930Z,6.47
2018-04-15T03:34:42.091Z,5.80
2018-04-15T03:37:09.266Z,5.80
2018-04-15T03:39:36.500Z,5.90
2018-04-15T03:42:03.009Z,6.05
2018-04-15T03:44:29.435Z,6.45
2018-04-15T03:46:56.579Z,6.70
2018-04-15T03:49:23.016Z,6.50
2018-04-15T03:51:49.458Z,6.45
2018-04-15T03:54:16.407Z,6.20
2018-04-15T03:56:43.696Z,6.70
2018-04-15T03:59:10.131Z,6.12
2018-04-15T04:01:37.408Z,6.37
2018-04-15T04:04:04.573Z,6.60
2018-04-15T04:06:31.006Z,6.00
2018-04-15T04:08:57.440Z,6.80
2018-04-15T04:11:23.877Z,6.55
2018-04-15T04:13:50.395Z,6.80
2018-04-15T04:16:16.790Z,7.55
2018-04-15T04:18:55.266Z,7.70
2018-04-15T04:21:36.870Z,8.10
2018-04-15T04:24:15.605Z,7.53
2018-04-15T04:26:42.893Z,8.13
2018-04-15T04:29:10.109Z,7.50
2018-04-15T04:31:36.569Z,7.43
2018-04-15T04:34:04.111Z,7.20
2018-04-15T04:36:30.559Z,7.55
2018-04-15T04:38:57.737Z,7.65
2018-04-15T04:41:24.882Z,7.67
2018-04-15T04:43:54.136Z,7.50
2018-04-15T04:46:20.550Z,7.20
2018-04-15T04:48:47.699Z,7.47
2018-04-15T04:51:14.104Z,7.60
2018-04-15T04:53:40.602Z,7.75
2018-04-15T04:56:07.061Z,8.35
2018-04-15T04:58:33.574Z,10.20
2018-04-15T05:01:01.418Z,24.80
2018-04-15T05:03:27.988Z,11.35
2018-04-15T05:05:55.135Z,8.90
2018-04-15T05:08:21.646Z,33.10
2018-04-15T05:10:49.908Z,9.00
2018-04-15T05:13:16.404Z,9.70
2018-04-15T05:15:42.846Z,8.50
2018-04-15T05:18:09.418Z,8.57
2018-04-15T05:20:38.083Z,8.40
2018-04-15T05:23:04.545Z,8.27
2018-04-15T05:25:30.973Z,7.70
2018-04-15T05:27:57.491Z,8.13
2018-04-15T05:30:24.033Z,9.95
2018-04-15T05:32:51.233Z,7.90
2018-04-15T05:35:17.660Z,7.70
2018-04-15T05:37:44.116Z,8.50
2018-04-15T05:40:10.553Z,9.23
2018-04-15T05:42:37.026Z,15.95
2018-04-15T05:45:03.606Z,37.97
2018-04-15T05:47:30.028Z,17.80
2018-04-15T05:49:57.928Z,11.30
2018-04-15T05:52:24.364Z,11.20
2018-04-15T05:54:50.842Z,9.45
2018-04-15T05:57:17.374Z,10.20
2018-04-15T05:59:43.770Z,10.20
2018-04-15T06:02:10.995Z,10.50
2018-04-15T06:04:37.638Z,9.23
2018-04-15T06:07:04.085Z,12.10
2018-04-15T06:09:30.626Z,10.70
2018-04-15T06:11:57.290Z,9.13
2018-04-15T06:14:23.723Z,8.80
2018-04-15T06:16:51.018Z,9.93
2018-04-15T06:19:17.785Z,8.48
2018-04-15T06:21:44.441Z,8.90
2018-04-15T06:24:10.997Z,8.40
2018-04-15T06:26:38.206Z,8.00
2018-04-15T06:29:04.755Z,7.60
2018-04-15T06:31:31.736Z,7.50
2018-04-15T06:33:59.873Z,7.37
2018-04-15T06:36:28.019Z,7.15
2018-04-15T06:38:54.742Z,7.50
2018-04-15T06:41:22.137Z,7.17
2018-04-15T06:43:48.582Z,7.45
2018-04-15T06:46:15.863Z,7.28
2018-04-15T06:48:42.351Z,7.30
2018-04-15T06:51:08.833Z,6.80
2018-04-15T06:53:35.297Z,7.23
2018-04-15T06:56:02.451Z,7.70
2018-04-15T06:58:28.855Z,7.45
2018-04-15T07:00:55.330Z,6.73
2018-04-15T07:03:21.974Z,6.78
2018-04-15T07:05:48.423Z,6.70
2018-04-15T07:08:15.699Z,6.00
2018-04-15T07:10:42.252Z,5.87
2018-04-15T07:13:09.435Z,5.90
2018-04-15T07:15:35.882Z,5.85
2018-04-15T07:18:02.325Z,7.20
2018-04-15T07:20:30.887Z,6.00
2018-04-15T07:22:57.304Z,5.80
2018-04-15T07:25:24.390Z,5.43
2018-04-15T07:27:51.950Z,4.80
2018-04-15T07:30:19.232Z,4.65
2018-04-15T07:32:45.782Z,4.60
2018-04-15T07:35:13.009Z,4.37
2018-04-15T07:37:39.516Z,4.55
2018-04-15T07:40:06.708Z,4.70
2018-04-15T07:42:33.145Z,4.47
2018-04-15T07:44:59.623Z,4.50
2018-04-15T07:47:26.091Z,3.90
2018-04-15T07:49:52.787Z,3.60
2018-04-15T07:52:19.765Z,3.50
2018-04-15T07:54:46.344Z,3.90
2018-04-15T07:57:12.854Z,4.40
2018-04-15T07:59:40.188Z,4.60
2018-04-15T08:02:08.537Z,4.00
2018-04-15T08:04:34.955Z,4.30
2018-04-15T08:07:01.373Z,4.03
2018-04-15T08:09:28.581Z,3.97
2018-04-15T08:11:54.991Z,4.37
2018-04-15T08:14:21.445Z,4.60
2018-04-15T08:16:47.877Z,4.37
2018-04-15T08:19:14.304Z,4.70
2018-04-15T08:21:40.730Z,4.40
2018-04-15T08:24:07.881Z,4.90
2018-04-15T08:26:34.270Z,4.70
2018-04-15T08:29:00.676Z,4.50
2018-04-15T08:31:27.113Z,5.30
2018-04-15T08:33:53.560Z,6.68
2018-04-15T08:36:20.002Z,6.53
2018-04-15T08:38:46.420Z,7.65
2018-04-15T08:41:13.055Z,5.57
2018-04-15T08:43:39.559Z,5.37
2018-04-15T08:46:06.725Z,4.70
2018-04-15T08:48:33.879Z,5.30
2018-04-15T08:51:00.283Z,5.00
2018-04-15T08:53:26.715Z,5.68
2018-04-15T08:55:53.871Z,5.35
2018-04-15T08:58:21.057Z,5.20
2018-04-15T09:00:47.533Z,5.60
2018-04-15T09:03:14.072Z,6.10
2018-04-15T09:05:41.242Z,5.40
2018-04-15T09:08:09.052Z,5.50
2018-04-15T09:10:35.589Z,5.60
2018-04-15T09:13:02.853Z,5.57
2018-04-15T09:15:30.019Z,6.80
2018-04-15T09:17:57.716Z,5.60
2018-04-15T09:20:24.929Z,6.05
2018-04-15T09:22:51.449Z,5.40
2018-04-15T09:25:18.723Z,5.37
2018-04-15T09:27:45.928Z,4.70
2018-04-15T09:30:12.480Z,6.00
2018-04-15T09:32:38.940Z,5.80
2018-04-15T09:35:05.427Z,5.43
2018-04-15T09:37:32.108Z,5.10
2018-04-15T09:39:58.518Z,4.95
2018-04-15T09:42:24.961Z,4.68
2018-04-15T09:44:51.445Z,4.53
2018-04-15T09:47:17.908Z,4.50
2018-04-15T09:49:45.226Z,4.35
2018-04-15T09:52:12.421Z,4.40
2018-04-15T09:54:38.831Z,4.37
2018-04-15T09:57:05.247Z,4.25
2018-04-15T09:59:31.667Z,3.95
2018-04-15T10:01:58.940Z,4.10
2018-04-15T10:04:26.214Z,3.80
2018-04-15T10:06:54.052Z,3.83
2018-04-15T10:09:20.465Z,4.20
2018-04-15T10:11:46.923Z,3.80
2018-04-15T10:14:13.381Z,4.03
2018-04-15T10:16:39.927Z,3.60
2018-04-15T10:19:07.113Z,3.62
2018-04-15T10:21:33.567Z,3.70
2018-04-15T10:24:00.005Z,4.17
2018-04-15T10:26:27.227Z,3.90
2018-04-15T10:28:54.561Z,3.65
2018-04-15T10:31:21.023Z,3.80
2018-04-15T10:33:48.177Z,3.42
2018-04-15T10:36:15.343Z,3.55
2018-04-15T10:38:42.652Z,3.97
2018-04-15T10:41:09.088Z,3.35
2018-04-15T10:43:36.306Z,3.40
2018-04-15T10:46:03.063Z,3.80
2018-04-15T10:48:29.589Z,3.60
2018-04-15T10:50:56.857Z,3.50
2018-04-15T10:53:24.036Z,3.25
2018-04-15T10:55:51.206Z,3.20
2018-04-15T10:58:17.772Z,3.00
2018-04-15T11:00:44.424Z,2.72
2018-04-15T11:03:11.806Z,3.12
2018-04-15T11:05:38.252Z,3.08
2018-04-15T11:08:05.426Z,3.20
2018-04-15T11:10:33.512Z,2.90
2018-04-15T11:13:00.743Z,3.00
2018-04-15T11:15:27.187Z,3.40
2018-04-15T11:17:53.573Z,2.90
2018-04-15T11:20:20.025Z,3.10
2018-04-15T11:22:46.429Z,3.42
2018-04-15T11:25:12.926Z,3.00
2018-04-15T11:27:40.102Z,3.30
2018-04-15T11:30:06.566Z,2.70
2018-04-15T11:32:33.019Z,2.92
2018-04-15T11:34:59.453Z,3.00
2018-04-15T11:37:25.896Z,2.90
2018-04-15T11:39:53.276Z,2.80
2018-04-15T11:42:19.726Z,2.40
2018-04-15T11:44:46.936Z,2.35
2018-04-15T11:47:14.049Z,2.60
2018-04-15T11:49:41.425Z,2.60
2018-04-15T11:52:08.724Z,3.00
2018-04-15T11:54:35.256Z,2.22
2018-04-15T11:57:02.472Z,2.65
2018-04-15T11:59:28.914Z,2.50
2018-04-15T12:01:55.371Z,2.35
2018-04-15T12:04:21.825Z,2.60
2018-04-15T12:06:48.263Z,2.70
2018-04-15T12:09:14.734Z,2.50
2018-04-15T12:11:41.275Z,2.50
2018-04-15T12:14:07.828Z,3.37
2018-04-15T12:16:34.990Z,2.50
2018-04-15T12:19:02.168Z,2.28
2018-04-15T12:21:29.390Z,2.50
2018-04-15T12:23:55.861Z,2.50
2018-04-15T12:26:22.300Z,2.70
2018-04-15T12:28:48.765Z,2.47
2018-04-15T12:31:15.386Z,2.70
2018-04-15T12:33:41.826Z,2.50
2018-04-15T12:36:08.271Z,2.80
2018-04-15T12:38:35.456Z,3.15
2018-04-15T12:41:01.976Z,2.90
2018-04-15T12:43:28.475Z,2.00
2018-04-15T12:45:55.857Z,2.30
2018-04-15T12:48:22.324Z,2.40
2018-04-15T12:50:48.726Z,2.53
2018-04-15T12:53:15.115Z,2.40
2018-04-15T12:55:42.306Z,2.70
2018-04-15T12:58:08.814Z,2.10
2018-04-15T13:00:35.308Z,2.70
2018-04-15T13:03:01.768Z,2.37
2018-04-15T13:05:28.403Z,2.83
2018-04-15T13:07:54.866Z,2.40
2018-04-15T13:10:22.151Z,2.40
2018-04-15T13:12:48.599Z,2.70
2018-04-15T13:15:16.831Z,2.78
2018-04-15T13:17:43.267Z,2.40
2018-04-15T13:20:09.693Z,2.53
2018-04-15T13:22:36.275Z,2.55
2018-04-15T13:25:03.614Z,2.70
2018-04-15T13:27:30.017Z,2.33
2018-04-15T13:29:57.092Z,2.20
2018-04-15T13:32:23.944Z,2.30
2018-04-15T13:34:50.353Z,2.53
2018-04-15T13:37:16.801Z,2.60
2018-04-15T13:39:43.308Z,2.60
2018-04-15T13:42:10.584Z,2.30
2018-04-15T13:44:37.728Z,2.50
2018-04-15T13:47:04.172Z,2.60
2018-04-15T13:49:31.570Z,2.62
2018-04-15T13:51:58.018Z,2.90
2018-04-15T13:54:24.522Z,2.90
2018-04-15T13:56:51.065Z,2.58
2018-04-15T13:59:17.527Z,2.70
2018-04-15T14:01:44.581Z,2.60
2018-04-15T14:04:11.773Z,2.53
2018-04-15T14:06:38.175Z,2.40
2018-04-15T14:09:05.591Z,2.70
2018-04-15T14:11:32.027Z,2.50
2018-04-15T14:13:59.122Z,3.47
2018-04-15T14:16:26.391Z,2.40
2018-04-15T14:18:53.668Z,3.37
2018-04-15T14:21:20.157Z,3.20
2018-04-15T14:23:46.597Z,2.72
2018-04-15T14:26:13.139Z,2.70
2018-04-15T14:28:40.318Z,2.40
2018-04-15T14:31:06.746Z,2.40
2018-04-15T14:36:01.190Z,2.57
2018-04-15T14:38:28.381Z,2.10
2018-04-15T14:40:54.865Z,2.40
2018-04-15T14:43:21.303Z,2.30
2018-04-15T14:45:47.790Z,2.80
2018-04-15T14:48:14.257Z,2.50
2018-04-15T14:50:40.683Z,2.70
2018-04-15T14:53:07.129Z,2.60
2018-04-15T14:55:33.685Z,2.40
2018-04-15T14:58:00.119Z,2.50
2018-04-15T15:00:27.411Z,2.87
2018-04-15T15:02:53.969Z,2.30
2018-04-15T15:05:20.531Z,2.30
2018-04-15T15:07:46.982Z,2.50
2018-04-15T15:10:14.259Z,2.30
2018-04-15T15:12:41.428Z,2.50
2018-04-15T15:15:08.409Z,2.20
2018-04-15T15:17:34.894Z,2.40
2018-04-15T15:20:01.319Z,2.80
2018-04-15T15:22:27.748Z,2.90
2018-04-15T15:24:54.179Z,4.72
2018-04-15T15:27:20.641Z,5.82
2018-04-15T15:29:47.072Z,6.80
2018-04-15T15:32:13.533Z,6.70
2018-04-15T15:34:40.150Z,6.12
2018-04-15T15:37:07.424Z,5.60
2018-04-15T15:39:34.700Z,5.60
2018-04-15T15:42:01.976Z,5.57
2018-04-15T15:44:29.248Z,5.10
2018-04-15T15:46:55.682Z,5.28
2018-04-15T15:49:22.166Z,4.80
2018-04-15T15:51:48.631Z,4.43
2018-04-15T15:54:15.174Z,4.70
2018-04-15T15:56:42.369Z,4.50
2018-04-15T15:59:08.807Z,5.40
2018-04-15T16:01:35.875Z,4.50
2018-04-15T16:04:02.328Z,4.40
2018-04-15T16:06:28.803Z,4.55
2018-04-15T16:08:55.236Z,4.50
2018-04-15T16:11:22.422Z,4.10
2018-04-15T16:13:48.904Z,5.20
2018-04-15T16:16:15.429Z,4.77
2018-04-15T16:18:42.705Z,4.00
2018-04-15T16:21:09.158Z,6.53
2018-04-15T16:23:36.329Z,4.10
2018-04-15T16:26:03.588Z,5.43
2018-04-15T16:28:30.165Z,5.95
2018-04-15T16:30:56.725Z,5.40
2018-04-15T16:33:23.212Z,4.90
2018-04-15T16:35:49.739Z,5.30
2018-04-15T16:38:16.197Z,7.25
2018-04-15T16:40:43.338Z,5.05
2018-04-15T16:43:10.477Z,12.87
2018-04-15T16:45:36.997Z,5.60
2018-04-15T16:48:03.433Z,4.10
2018-04-15T16:50:30.727Z,3.70
2018-04-15T16:52:57.287Z,4.12
2018-04-15T16:55:23.812Z,4.03
2018-04-15T16:57:50.303Z,4.05
2018-04-15T17:00:16.856Z,5.30
2018-04-15T17:02:44.442Z,8.25
2018-04-15T17:05:10.933Z,4.40
2018-04-15T17:07:37.457Z,4.40
2018-04-15T17:10:04.009Z,5.40
2018-04-15T17:12:30.579Z,10.02
2018-04-15T17:14:57.128Z,9.60
2018-04-15T17:17:23.583Z,5.30
2018-04-15T17:19:50.839Z,4.12
2018-04-15T17:22:17.325Z,3.58
2018-04-15T17:24:44.738Z,3.72
2018-04-15T17:27:12.750Z,4.50
2018-04-15T17:29:40.000Z,4.18
2018-04-15T17:32:06.492Z,4.20
2018-04-15T17:34:33.725Z,4.12
2018-04-15T17:37:00.451Z,3.77
2018-04-15T17:39:26.935Z,4.20
2018-04-15T17:41:53.814Z,4.03
2018-04-15T17:44:20.807Z,3.95
2018-04-15T17:46:48.005Z,4.70
2018-04-15T17:49:15.242Z,4.20
2018-04-15T17:51:42.482Z,4.12
2018-04-15T17:54:09.028Z,4.30
2018-04-15T17:56:35.549Z,4.12
2018-04-15T17:59:02.792Z,4.60
2018-04-15T18:01:30.638Z,4.47
2018-04-15T18:03:57.422Z,4.62
2018-04-15T18:06:24.269Z,4.65
2018-04-15T18:08:50.879Z,5.07
2018-04-15T18:11:18.289Z,9.52
2018-04-15T18:13:45.275Z,10.73
2018-04-15T18:16:12.242Z,11.23
2018-04-15T18:18:39.603Z,11.35
2018-04-15T18:21:07.401Z,8.82
2018-04-15T18:23:34.724Z,6.60
2018-04-15T18:26:01.395Z,7.10
2018-04-15T18:28:28.203Z,9.00
2018-04-15T18:30:56.092Z,5.95
2018-04-15T18:33:22.623Z,6.22
2018-04-15T18:35:50.767Z,8.15
2018-04-15T18:38:17.278Z,9.57
2018-04-15T18:40:44.505Z,10.60
2018-04-15T18:43:12.151Z,13.00
2018-04-15T18:45:39.390Z,13.18
2018-04-15T18:48:07.522Z,12.93
2018-04-15T18:50:36.023Z,10.77
2018-04-15T18:53:03.915Z,11.05
2018-04-15T18:55:31.600Z,9.82
2018-04-15T18:57:59.483Z,9.95
2018-04-15T19:00:27.068Z,9.23
2018-04-15T19:02:56.131Z,9.15
2018-04-15T19:05:25.391Z,8.20
2018-04-15T19:07:53.085Z,7.87
2018-04-15T19:10:21.922Z,10.98
2018-04-15T19:12:50.657Z,10.00
2018-04-15T19:15:17.737Z,9.00
2018-04-15T19:17:45.457Z,7.80
2018-04-15T19:20:12.193Z,8.20
2018-04-15T19:22:38.980Z,7.57
2018-04-15T19:25:05.641Z,7.90
2018-04-15T19:27:32.944Z,7.40
2018-04-15T19:30:02.268Z,8.33
2018-04-15T19:32:28.771Z,7.20
2018-04-15T19:34:55.248Z,8.90
2018-04-15T19:37:22.422Z,10.00
2018-04-15T19:39:49.696Z,10.98
2018-04-15T19:42:17.380Z,11.07
2018-04-15T19:44:44.770Z,12.90
2018-04-15T19:47:11.246Z,13.73
2018-04-15T19:49:37.746Z,14.85
2018-04-15T19:52:04.304Z,16.85
2018-04-15T19:54:30.781Z,17.08
2018-04-15T19:56:58.006Z,20.50
2018-04-15T19:59:24.580Z,16.48
2018-04-15T20:01:51.021Z,16.48
2018-04-15T20:04:17.837Z,15.07
2018-04-15T20:06:45.224Z,15.00
2018-04-15T20:09:11.775Z,11.98
2018-04-15T20:11:38.253Z,9.23
2018-04-15T20:14:05.131Z,9.20
2018-04-15T20:16:31.629Z,11.02
2018-04-15T20:18:58.186Z,11.52
2018-04-15T20:21:24.714Z,8.50
2018-04-15T20:23:51.328Z,9.80
2018-04-15T20:26:18.602Z,9.77
2018-04-15T20:28:45.086Z,8.68
2018-04-15T20:31:11.591Z,9.15
2018-04-15T20:33:38.074Z,7.95
2018-04-15T20:36:04.540Z,7.12
2018-04-15T20:38:31.293Z,7.10
2018-04-15T20:40:58.517Z,6.10
2018-04-15T20:43:24.978Z,6.30
2018-04-15T20:45:51.441Z,5.68
2018-04-15T20:48:17.906Z,5.60
2018-04-15T20:50:45.084Z,5.25
2018-04-15T20:53:12.334Z,4.90
2018-04-15T20:55:38.737Z,4.95
2018-04-15T20:58:05.923Z,5.60
2018-04-15T21:00:32.373Z,5.40
2018-04-15T21:02:58.928Z,5.22
2018-04-15T21:05:25.382Z,5.18
2018-04-15T21:07:51.935Z,5.45
2018-04-15T21:10:19.608Z,5.20
2018-04-15T21:12:46.770Z,5.50
2018-04-15T21:15:13.227Z,4.80
2018-04-15T21:17:40.524Z,4.90
2018-04-15T21:20:06.972Z,5.10
2018-04-15T21:22:33.458Z,5.40
2018-04-15T21:25:00.203Z,5.30
2018-04-15T21:27:26.615Z,5.60
2018-04-15T21:29:53.047Z,5.65
2018-04-15T21:32:19.640Z,5.90
2018-04-15T21:34:46.085Z,6.10
2018-04-15T21:37:12.507Z,6.70
2018-04-15T21:39:38.976Z,7.00
2018-04-15T21:42:06.154Z,7.35
2018-04-15T21:44:32.584Z,7.70
2018-04-15T21:46:59.029Z,8.20
2018-04-15T21:49:25.467Z,8.37
2018-04-15T21:51:52.642Z,8.07
2018-04-15T21:54:19.925Z,7.93
2018-04-15T21:56:47.196Z,8.20
2018-04-15T21:59:14.474Z,8.30
2018-04-15T22:01:41.612Z,8.23
2018-04-15T22:04:08.105Z,7.93
2018-04-15T22:06:34.532Z,7.60
2018-04-15T22:09:01.013Z,7.53
2018-04-15T22:11:40.445Z,7.45
2018-04-15T22:14:07.669Z,7.50
2018-04-15T22:16:34.055Z,8.05
2018-04-15T22:19:00.645Z,7.70
2018-04-15T22:21:29.828Z,7.57
2018-04-15T22:23:56.303Z,7.80
2018-04-15T22:26:23.593Z,7.65
2018-04-15T22:28:52.890Z,7.32
2018-04-15T22:31:19.370Z,7.40
2018-04-15T22:33:46.540Z,7.00
2018-04-15T22:36:13.712Z,6.57
2018-04-15T22:38:40.989Z,7.25
2018-04-15T22:41:08.162Z,6.90
2018-04-15T22:43:35.337Z,7.00
2018-04-15T22:46:01.807Z,7.18
2018-04-15T22:48:48.192Z,7.30
2018-04-15T22:51:14.605Z,7.30
2018-04-15T22:53:41.044Z,7.83
2018-04-15T22:56:09.314Z,7.97
2018-04-15T22:58:42.550Z,8.60
2018-04-15T23:01:09.066Z,8.05
2018-04-15T23:03:35.530Z,7.97
2018-04-15T23:06:01.990Z,7.60
2018-04-15T23:08:28.438Z,7.20
2018-04-15T23:10:54.939Z,7.60
2018-04-15T23:13:21.428Z,7.10
2018-04-15T23:15:47.900Z,7.40
2018-04-15T23:18:15.046Z,7.18
2018-04-15T23:20:41.559Z,7.07
2018-04-15T23:23:07.995Z,7.65
2018-04-15T23:25:34.447Z,7.12
2018-04-15T23:28:00.902Z,7.30
2018-04-15T23:30:28.023Z,7.00
2018-04-15T23:32:54.524Z,7.20
2018-04-15T23:35:21.067Z,7.40
2018-04-15T23:37:47.473Z,7.90
2018-04-15T23:40:13.894Z,8.10
2018-04-15T23:42:41.067Z,7.80
2018-04-15T23:45:08.239Z,7.93
2018-04-15T23:47:35.423Z,7.68
2018-04-15T23:50:01.906Z,7.90
2018-04-15T23:52:28.377Z,8.00
2018-04-15T23:54:54.885Z,8.15
2018-04-15T23:57:22.262Z,8.25
2018-04-15T23:59:48.730Z,8.88
